Time;durP1;ratioP1;P1;durP2;ratioP2;P2;SDS_P1;SDS_P2;PMS_P1;PMS_P2;Temp;Humidity;BMP_temperature;BMP_pressure;BME280_temperature;BME280_humidity;BME280_pressure;Samples;Min_cycle;Max_cycle;Signal;HPM_P1;HPM_P2
2022/11/18 00:01:06;;;;;;;;;;;;;;;-2.91;83.46;98408.98;106598;1271;139649;-61
2022/11/18 00:03:33;;;;;;;6.60;4.50;;;;;;;-2.91;83.50;98409.92;106658;1302;22205;-61
2022/11/18 00:05:59;;;;;;;;;;;;;;;-2.91;83.28;98410.20;106676;1296;138513;-61
2022/11/18 00:08:26;;;;;;;7.10;4.90;;;;;;;-2.92;83.12;98417.83;106677;1288;22438;-61
2022/11/18 00:10:53;;;;;;;;;;;;;;;-2.92;83.34;98417.50;106677;1294;22353;-61
2022/11/18 00:16:07;;;;;;;7.60;5.10;;;;;;;-2.91;83.33;98420.41;106738;1280;22241;-61
2022/11/18 00:18:34;;;;;;;9.20;5.70;;;;;;;-2.92;83.23;98420.09;106588;1302;138516;-61
2022/11/18 00:21:01;;;;;;;;;;;;;;;-2.91;83.20;98418.70;106686;1288;22373;-61
2022/11/18 00:23:28;;;;;;;6.80;4.80;;;;;;;-2.88;83.37;98417.63;106689;1271;22004;-61
2022/11/18 00:25:55;;;;;;;10.90;5.20;;;;;;;-2.89;83.18;98421.48;106261;1281;138310;-61
2022/11/18 00:28:22;;;;;;;7.20;5.10;;;;;;;-2.88;83.26;98420.70;106670;1302;22233;-61
2022/11/18 00:30:48;;;;;;;12.60;5.30;;;;;;;-2.86;83.36;98416.64;106623;1302;139905;-61
2022/11/18 00:33:15;;;;;;;10.30;5.50;;;;;;;-2.82;83.40;98413.02;106722;1302;23043;-61
2022/11/18 00:35:42;;;;;;;13.30;5.60;;;;;;;-2.80;83.43;98412.04;106714;1287;22284;-61
2022/11/18 00:38:09;;;;;;;7.60;5.10;;;;;;;-2.79;83.11;98411.55;106601;1302;138259;-61
2022/11/18 00:40:35;;;;;;;8.90;5.60;;;;;;;-2.81;83.16;98407.33;106658;1303;22803;-61
2022/11/18 00:43:02;;;;;;;10.90;5.40;;;;;;;-2.79;83.22;98408.11;106516;1289;138406;-61
2022/11/18 00:45:29;;;;;;;9.40;5.30;;;;;;;-2.77;83.16;98406.60;106739;1302;22326;-61
2022/11/18 00:47:56;;;;;;;7.10;5.50;;;;;;;-2.75;83.22;98405.88;106638;1302;138362;-61
2022/11/18 00:50:23;;;;;;;8.50;5.10;;;;;;;-2.73;82.90;98406.27;106658;1302;22324;-61
2022/11/18 00:52:50;;;;;;;7.80;5.50;;;;;;;-2.74;82.82;98403.73;106679;1303;23104;-61
2022/11/18 00:55:17;;;;;;;7.50;5.60;;;;;;;-2.74;82.47;98400.95;106536;1288;137768;-61
2022/11/18 00:57:43;;;;;;;11.60;6.00;;;;;;;-2.76;82.44;98404.73;106714;1303;22276;-61
2022/11/18 01:00:10;;;;;;;8.60;5.20;;;;;;;-2.78;82.14;98402.21;106629;1302;139090;-61
2022/11/18 01:02:37;;;;;;;8.40;5.60;;;;;;;-2.81;82.12;98406.63;106701;1302;23071;-61
2022/11/18 01:05:04;;;;;;;;;;;;;;;-2.83;82.03;98410.09;106723;1302;22411;-61
2022/11/18 01:07:38;;;;;;;6.20;4.70;;;;;;;-2.85;82.08;98409.64;106650;1302;125297;-61
2022/11/18 01:10:05;;;;;;;;;;;;;;;-2.85;82.34;98413.12;106745;1288;23241;-61
2022/11/18 01:15:20;;;;;;;9.70;5.40;;;;;;;-2.79;82.18;98412.91;106715;1303;22134;-61
2022/11/18 01:17:46;;;;;;;8.20;5.80;;;;;;;-2.78;82.04;98416.20;106612;1295;137823;-60
2022/11/18 01:20:14;;;;;;;11.10;6.30;;;;;;;-2.81;81.62;98414.46;106738;1278;22346;-61
2022/11/18 01:22:41;;;;;;;11.50;6.80;;;;;;;-2.83;81.54;98410.63;106691;1303;23366;-61
2022/11/18 01:25:08;;;;;;;8.40;6.40;;;;;;;-2.84;81.53;98412.92;106572;1293;140570;-61
2022/11/18 01:27:35;;;;;;;10.00;6.10;;;;;;;-2.85;81.63;98412.83;106730;1302;22120;-61
2022/11/18 01:30:01;;;;;;;10.00;6.80;;;;;;;-2.87;81.29;98411.88;106651;1302;138846;-61
2022/11/18 01:32:28;;;;;;;;;;;;;;;-2.90;81.24;98416.65;106707;1302;22431;-61
2022/11/18 01:34:55;;;;;;;7.50;5.60;;;;;;;-2.91;80.99;98417.55;106677;1297;22141;-61
2022/11/18 01:37:22;;;;;;;7.80;5.60;;;;;;;-2.91;80.97;98416.61;106643;1303;138572;-61
2022/11/18 01:39:48;;;;;;;9.80;6.50;;;;;;;-2.89;80.80;98418.38;106685;1302;22125;-61
2022/11/18 01:42:15;;;;;;;;;;;;;;;-2.88;80.70;98421.89;106671;1302;139320;-61
2022/11/18 01:45:03;;;;;;;10.00;6.30;;;;;;;-2.89;80.60;98422.72;106693;1278;22297;-61
2022/11/18 01:47:34;;;;;;;10.00;6.10;;;;;;;-2.89;80.84;98418.21;106608;1304;22420;-61
2022/11/18 01:50:01;;;;;;;10.60;7.30;;;;;;;-2.90;80.60;98422.14;106547;1302;138037;-61
2022/11/18 01:52:28;;;;;;;;;;;;;;;-2.89;80.41;98426.20;106493;1303;22339;-61
2022/11/18 01:54:57;;;;;;;9.10;6.00;;;;;;;-2.88;80.56;98427.50;106579;1296;125549;-61
2022/11/18 01:57:26;;;;;;;8.60;6.40;;;;;;;-2.87;80.50;98429.02;106583;1302;22229;-61
2022/11/18 01:59:54;;;;;;;11.10;6.10;;;;;;;-2.86;80.52;98435.30;106540;1302;139226;-61
2022/11/18 02:02:21;;;;;;;10.60;6.70;;;;;;;-2.86;80.59;98436.87;106511;1297;89735;-61
2022/11/18 02:05:53;;;;;;;11.80;6.40;;;;;;;-2.83;80.26;98437.78;99557;1322;544870;-62
2022/11/18 02:08:20;;;;;;;;;;;;;;;-2.84;80.32;98439.86;101128;1318;22466;-61
2022/11/18 02:10:46;;;;;;;14.00;6.00;;;;;;;-2.83;80.50;98443.69;101182;1301;25375;-61
2022/11/18 02:13:13;;;;;;;12.20;6.10;;;;;;;-2.83;80.28;98442.08;100888;1308;136695;-60
2022/11/18 02:15:43;;;;;;;8.80;5.70;;;;;;;-2.85;80.17;98446.34;101054;1307;25158;-61
2022/11/18 02:18:22;;;;;;;10.80;6.90;;;;;;;-2.86;80.20;98447.36;100860;1297;138496;-61
2022/11/18 02:20:50;;;;;;;13.60;7.30;;;;;;;-2.88;79.86;98451.98;101407;1305;22537;-61
2022/11/18 02:23:41;;;;;;;11.40;6.60;;;;;;;-2.89;79.92;98449.08;102103;1295;24234;-61
2022/11/18 02:26:20;;;;;;;8.80;6.50;;;;;;;-2.91;79.81;98449.61;105813;1309;138333;-61
2022/11/18 02:28:56;;;;;;;11.70;6.80;;;;;;;-2.91;79.62;98449.45;106476;1289;22372;-61
2022/11/18 02:31:26;;;;;;;11.40;6.40;;;;;;;-2.90;79.62;98451.83;106511;1303;139650;-61
2022/11/18 02:33:57;;;;;;;9.80;6.50;;;;;;;-2.90;79.41;98447.48;106471;1306;22139;-62
2022/11/18 02:36:38;;;;;;;14.00;7.00;;;;;;;-2.92;79.16;98446.08;106579;1303;137937;-61
2022/11/18 02:39:12;;;;;;;9.80;6.40;;;;;;;-2.92;79.36;98446.77;106538;1298;22155;-61
2022/11/18 02:41:39;;;;;;;12.40;6.90;;;;;;;-2.92;79.00;98445.84;106618;1292;22147;-61
2022/11/18 02:44:09;;;;;;;10.60;5.80;;;;;;;-2.95;78.98;98443.60;106323;1301;137447;-61
2022/11/18 02:46:37;;;;;;;9.50;6.40;;;;;;;-2.90;79.03;98456.83;103707;1290;22493;-61
2022/11/18 02:49:09;;;;;;;8.00;5.20;;;;;;;-2.89;79.10;98458.52;106383;1305;137559;-61
2022/11/18 02:51:36;;;;;;;7.70;6.10;;;;;;;-2.90;78.84;98461.45;106395;1298;23495;-61
2022/11/18 02:54:05;;;;;;;7.70;5.60;;;;;;;-2.91;79.08;98462.61;106321;1283;138894;-61
2022/11/18 02:56:32;;;;;;;12.00;6.10;;;;;;;-2.90;78.92;98465.88;106557;1303;22901;-61
2022/11/18 02:58:59;;;;;;;11.70;6.20;;;;;;;-2.89;78.83;98465.73;106460;1299;22173;-61
2022/11/18 03:01:27;;;;;;;;;;;;;;;-2.88;78.83;98462.23;106498;1305;140057;-61
2022/11/18 03:03:54;;;;;;;6.80;5.30;;;;;;;-2.86;79.02;98467.33;106527;1305;22159;-61
2022/11/18 03:06:31;;;;;;;8.20;6.00;;;;;;;-2.86;78.84;98460.92;106494;1305;137509;-61
2022/11/18 03:09:07;;;;;;;9.10;6.30;;;;;;;-2.85;79.07;98463.44;106406;1305;22156;-61
2022/11/18 03:12:13;;;;;;;10.80;5.90;;;;;;;-2.84;79.09;98458.85;106640;1295;22113;-61
2022/11/18 03:14:46;;;;;;;11.80;6.90;;;;;;;-2.82;79.02;98455.79;105999;1311;22256;-61
2022/11/18 03:17:19;;;;;;;9.20;6.20;;;;;;;-2.82;78.89;98454.63;105866;1312;22192;-61
2022/11/18 03:19:54;;;;;;;9.90;5.90;;;;;;;-2.84;78.99;98458.15;105709;1311;138874;-60
2022/11/18 03:22:51;;;;;;;8.70;5.70;;;;;;;-2.85;78.62;98455.85;105987;1314;22189;-61
2022/11/18 03:25:17;;;;;;;9.00;6.40;;;;;;;-2.85;78.88;98456.91;104916;1318;138159;-61
2022/11/18 03:27:55;;;;;;;;;;;;;;;-2.84;79.03;98457.61;105170;1302;22365;-61
2022/11/18 03:30:22;;;;;;;8.60;5.30;;;;;;;-2.81;79.24;98453.57;105109;1312;125346;-61
2022/11/18 03:32:55;;;;;;;;;;;;;;;-2.78;79.27;98457.23;105152;1320;22389;-61
2022/11/18 03:35:22;;;;;;;;;;;;;;;-2.75;79.23;98464.06;105118;1320;23482;-61
2022/11/18 03:37:51;;;;;;;;;;;;;;;-2.72;79.25;98464.84;105006;1320;125179;-60
2022/11/18 03:40:18;;;;;;;;;;;;;;;-2.69;78.96;98471.63;105196;1320;22381;-61
2022/11/18 03:42:47;;;;;;;;;;;;;;;-2.66;78.82;98470.09;105014;1318;125070;-61
2022/11/18 03:45:15;;;;;;;;;;;;;;;-2.63;78.74;98473.26;105290;1309;22430;-60
2022/11/18 03:47:43;;;;;;;;;;;;;;;-2.63;78.50;98470.51;105175;1320;22408;-61
2022/11/18 03:50:11;;;;;;;;;;;;;;;-2.62;78.12;98475.97;105055;1320;123902;-60
2022/11/18 03:52:38;;;;;;;;;;;;;;;-2.60;78.25;98476.05;105707;1310;22445;-60
2022/11/18 03:55:07;;;;;;;;;;;;;;;-2.58;78.28;98481.41;105602;1313;125606;-60
2022/11/18 03:57:43;;;;;;;;;;;;;;;-2.56;78.17;98482.45;105887;1314;23256;-60
2022/11/18 04:00:11;;;;;;;;;;;;;;;-2.56;78.16;98483.23;105686;1298;125733;-60
2022/11/18 04:02:38;;;;;;;;;;;;;;;-2.54;78.21;98481.65;106145;1305;22627;-60
2022/11/18 04:05:05;;;;;;;;;;;;;;;-2.52;78.23;98482.02;106568;1305;22400;-60
2022/11/18 04:07:37;;;;;;;;;;;;;;;-2.47;78.24;98483.82;106542;1296;124531;-60
2022/11/18 04:10:20;;;;;;;;;;;;;;;-2.43;78.30;98482.14;106574;1300;22454;-60
2022/11/18 04:12:52;;;;;;;;;;;;;;;-2.37;78.00;98480.67;106415;1290;125195;-60
2022/11/18 04:15:19;;;;;;;;;;;;;;;-2.32;77.91;98479.43;106434;1305;22401;-61
2022/11/18 04:17:45;;;;;;;;;;;;;;;-2.29;77.73;98476.02;106448;1305;22419;-62
2022/11/18 04:20:16;;;;;;;;;;;;;;;-2.27;77.49;98474.63;106437;1305;124892;-62
2022/11/18 04:22:43;;;;;;;;;;;;;;;-2.24;77.68;98477.80;106550;1305;22347;-61
2022/11/18 04:25:09;;;;;;;;;;;;;;;-2.19;77.60;98478.27;106472;1305;124309;-56
2022/11/18 04:27:36;;;;;;;;;;;;;;;-2.16;77.68;98477.77;106471;1305;22387;-57
2022/11/18 04:30:03;;;;;;;;;;;;;;;-2.12;77.90;98479.63;106537;1297;125094;-56
2022/11/18 04:32:30;;;;;;;;;;;;;;;-2.09;77.54;98480.14;106640;1304;22354;-55
2022/11/18 04:34:57;;;;;;;;;;;;;;;-2.08;77.25;98478.00;106631;1305;22348;-55
2022/11/18 04:37:23;;;;;;;;;;;;;;;-2.05;77.15;98475.83;106525;1305;123698;-56
2022/11/18 04:39:50;;;;;;;;;;;;;;;-2.04;77.22;98480.69;106593;1305;23088;-56
2022/11/18 04:42:17;;;;;;;;;;;;;;;-2.07;76.68;98475.30;106578;1305;124082;-56
2022/11/18 04:44:43;;;;;;;;;;;;;;;-2.03;76.98;98482.94;106549;1302;22462;-56
2022/11/18 04:47:10;;;;;;;;;;;;;;;-2.04;76.66;98484.42;106598;1305;22377;-56
2022/11/18 04:49:37;;;;;;;;;;;;;;;-2.04;76.51;98489.39;106426;1289;123887;-56
2022/11/18 04:52:03;;;;;;;;;;;;;;;-2.03;76.72;98492.51;106558;1302;23127;-57
2022/11/18 04:54:30;;;;;;;;;;;;;;;-2.03;76.96;98499.42;106505;1305;124125;-57
2022/11/18 04:56:57;;;;;;;;;;;;;;;-2.02;76.94;98507.69;106535;1290;22534;-62
2022/11/18 04:59:24;;;;;;;;;;;;;;;-2.03;76.84;98507.41;106581;1297;22361;-61
2022/11/18 05:01:51;;;;;;;;;;;;;;;-2.02;76.99;98506.52;106470;1305;124712;-61
2022/11/18 05:04:18;;;;;;;;;;;;;;;-2.01;76.83;98509.08;106587;1304;22457;-61
2022/11/18 05:06:45;;;;;;;;;;;;;;;-1.99;77.00;98509.95;106485;1305;125529;-62
2022/11/18 05:09:12;;;;;;;;;;;;;;;-1.98;76.86;98509.66;106598;1303;22322;-62
2022/11/18 05:14:27;;;;;;;;;;;;;;;-2.00;76.94;98513.30;106552;1303;22471;-61
2022/11/18 05:16:54;;;;;;;;;;;;;;;-2.00;76.56;98515.64;106455;1305;22353;-61
2022/11/18 05:19:21;;;;;;;;;;;;;;;-2.01;76.81;98520.29;106466;1305;124033;-61
2022/11/18 05:21:47;;;;;;;;;;;;;;;-2.01;76.79;98521.77;106574;1305;23299;-61
2022/11/18 05:24:14;;;;;;;;;;;;;;;-2.00;76.74;98527.88;106452;1297;123983;-61
2022/11/18 05:26:41;;;;;;;;;;;;;;;-2.00;76.82;98528.21;106561;1305;22444;-56
2022/11/18 05:29:07;;;;;;;;;;;;;;;-1.99;76.64;98529.12;106564;1297;22428;-56
2022/11/18 05:31:34;;;;;;;;;;;;;;;-1.97;76.62;98532.75;106476;1305;124676;-57
2022/11/18 05:34:01;;;;;;;;;;;;;;;-1.93;76.51;98533.91;106483;1298;22345;-57
2022/11/18 05:36:27;;;;;;;;;;;;;;;-1.90;76.61;98532.77;106410;1303;124853;-57
2022/11/18 05:38:56;;;;;;;;;;;;;;;-1.86;76.99;98530.59;105513;1297;22489;-56
2022/11/18 05:44:09;;;;;;;;;;;;;;;-1.78;77.18;98533.65;102048;1289;124517;-56
2022/11/18 05:46:35;;;;;;;;;;;;;;;-1.74;77.09;98539.25;102085;1297;22816;-56
2022/11/18 05:49:02;;;;;;;;;;;;;;;-1.73;77.21;98541.27;102074;1297;124103;-56
2022/11/18 05:51:29;;;;;;;;;;;;;;;-1.74;77.09;98543.23;102202;1297;22934;-56
2022/11/18 05:53:55;;;;;;;;;;;;;;;-1.74;76.83;98543.84;102122;1287;22546;-56
2022/11/18 05:56:24;;;;;;;;;;;;;;;-1.74;76.86;98544.35;102193;1300;22668;-56
2022/11/18 05:58:50;;;;;;;;;;;;;;;-1.73;77.48;98543.35;102165;1297;25250;-56
2022/11/18 06:01:19;;;;;;;;;;;;;;;-1.72;76.95;98540.59;102008;1288;124120;-57
2022/11/18 06:03:46;;;;;;;;;;;;;;;-1.75;76.60;98538.80;106357;1312;22449;-57
2022/11/18 06:06:12;;;;;;;;;;;;;;;-1.78;76.42;98541.86;106519;1297;124236;-57
2022/11/18 06:08:42;;;;;;;;;;;;;;;-1.82;76.14;98547.73;106576;1305;22472;-57
2022/11/18 06:11:09;;;;;;;;;;;;;;;-1.88;76.50;98549.23;106604;1297;22452;-56
2022/11/18 06:13:38;;;;;;;;;;;;;;;-1.91;76.40;98550.84;106425;1302;123739;-57
2022/11/18 06:16:05;;;;;;;;;;;;;;;-1.92;76.25;98553.46;106544;1305;22371;-57
2022/11/18 06:18:32;;;;;;;;;;;;;;;-1.93;76.50;98556.87;106505;1305;124432;-57
2022/11/18 06:21:00;;;;;;;;;;;;;;;-1.96;76.26;98553.94;106636;1305;22349;-57
2022/11/18 06:23:27;;;;;;;;;;;;;;;-1.98;76.39;98551.26;106573;1305;23303;-57
2022/11/18 06:25:54;;;;;;;;;;;;;;;-2.01;76.73;98551.70;106517;1295;124895;-56
2022/11/18 06:28:20;;;;;;;;;;;;;;;-2.04;76.73;98556.92;106620;1304;22601;-57
2022/11/18 06:30:47;;;;;;;;;;;;;;;-2.08;76.88;98551.89;106398;1308;124215;-57
2022/11/18 06:33:14;;;;;;;;;;;;;;;-2.13;76.78;98557.46;106558;1304;22337;-57
2022/11/18 06:35:41;;;;;;;;;;;;;;;-2.18;77.15;98553.14;106579;1303;22333;-62
2022/11/18 06:38:08;;;;;;;;;;;;;;;-2.23;76.89;98551.80;106464;1303;124777;-62
2022/11/18 06:40:36;;;;;;;;;;;;;;;-2.25;77.23;98557.13;106476;1286;22375;-62
2022/11/18 06:48:36;;;;;;;;;;;;;;;-2.20;77.52;98565.13;106521;1304;126104;-61
2022/11/18 06:51:06;;;;;;;;;;;;;;;-2.15;78.02;98564.02;106556;1305;22390;-61
2022/11/18 06:53:51;;;;;;;;;;;;;;;-2.11;77.94;98568.95;106369;1312;23423;-61
2022/11/18 06:56:19;;;;;;;;;;;;;;;-2.09;77.73;98569.63;106374;1307;124532;-62
2022/11/18 06:58:45;;;;;;;;;;;;;;;-2.08;77.64;98571.11;106603;1305;22361;-62
2022/11/18 07:01:23;;;;;;;;;;;;;;;-2.07;77.58;98583.19;106498;1305;124569;-61
2022/11/18 07:03:50;;;;;;;;;;;;;;;-2.05;77.30;98585.70;106536;1305;22417;-61
2022/11/18 07:06:18;;;;;;;;;;;;;;;-2.06;77.17;98585.91;106467;1298;125607;-61
2022/11/18 07:08:44;;;;;;;;;;;;;;;-2.04;77.18;98585.21;106519;1307;22563;-61
2022/11/18 07:11:12;;;;;;;;;;;;;;;-2.02;77.26;98582.75;106634;1291;22423;-61
2022/11/18 07:13:39;;;;;;;;;;;;;;;-2.01;77.45;98592.11;106428;1289;124514;-62
2022/11/18 07:16:13;;;;;;;;;;;;;;;-2.02;77.36;98590.64;106552;1290;22381;-61
2022/11/18 07:18:41;;;;;;;;;;;;;;;-2.03;77.53;98593.80;106529;1305;124743;-61
2022/11/18 07:21:08;;;;;;;;;;;;;;;-2.04;77.42;98593.48;106577;1304;22371;-61
2022/11/18 07:23:35;;;;;;;;;;;;;;;-2.03;77.44;98593.39;106585;1305;22537;-61
2022/11/18 07:26:02;;;;;;;;;;;;;;;-2.02;77.66;98596.79;106499;1305;124778;-61
2022/11/18 07:28:29;;;;;;;;;;;;;;;-2.00;77.96;98603.81;106586;1305;23334;-60
2022/11/18 07:31:05;;;;;;;;;;;;;;;-1.99;78.13;98613.25;106455;1305;124780;-60
2022/11/18 07:33:31;;;;;;;;;;;;;;;-1.96;78.50;98616.84;106564;1305;23541;-61
2022/11/18 07:36:02;;;;;;;;;;;;;;;-1.95;78.73;98619.80;106359;1298;125296;-61
2022/11/18 07:38:28;;;;;;;;;;;;;;;-1.95;79.07;98619.65;106480;1304;22507;-61
2022/11/18 07:41:01;;;;;;;;;;;;;;;-1.94;79.16;98619.16;106603;1305;22455;-61
2022/11/18 07:43:28;;;;;;;;;;;;;;;-2.01;79.14;98609.06;106483;1304;124321;-61
2022/11/18 07:45:54;;;;;;;;;;;;;;;-1.95;79.03;98617.26;106575;1305;22360;-61
2022/11/18 07:48:21;;;;;;;;;;;;;;;-1.93;79.54;98619.15;106338;1308;124904;-61
2022/11/18 07:50:48;;;;;;;;;;;;;;;-1.93;79.30;98619.49;106618;1305;22429;-61
2022/11/18 07:53:14;;;;;;;;;;;;;;;-1.89;79.11;98622.64;106548;1305;23232;-61
2022/11/18 07:55:41;;;;;;;;;;;;;;;-1.87;79.15;98622.38;106527;1305;124419;-62
2022/11/18 07:58:08;;;;;;;;;;;;;;;-1.86;79.06;98629.65;106732;1302;22430;-61
2022/11/18 08:00:34;;;;;;;;;;;;;;;-1.83;78.65;98629.54;106536;1295;124669;-61
2022/11/18 08:03:01;;;;;;;;;;;;;;;-1.85;79.01;98621.11;106678;1302;22323;-61
2022/11/18 08:05:28;;;;;;;;;;;;;;;-1.78;78.73;98636.75;106743;1292;22497;-61
2022/11/18 08:07:54;;;;;;;;;;;;;;;-1.74;78.61;98637.14;106607;1300;124295;-61
2022/11/18 08:10:21;;;;;;;;;;;;;;;-1.73;78.22;98636.23;106631;1305;23194;-62
2022/11/18 08:12:48;;;;;;;;;;;;;;;-1.73;78.20;98641.52;106621;1281;124183;-61
2022/11/18 08:15:14;;;;;;;;;;;;;;;-1.72;78.20;98651.95;106517;1287;23161;-61
2022/11/18 08:17:41;;;;;;;;;;;;;;;-1.71;78.21;98651.50;106753;1302;22355;-61
2022/11/18 08:20:08;;;;;;;;;;;;;;;-1.72;77.98;98658.57;106601;1305;124230;-61
2022/11/18 08:22:35;;;;;;;;;;;;;;;-1.74;78.10;98660.92;106756;1286;22323;-61
2022/11/18 08:25:02;;;;;;;;;;;;;;;-1.75;77.77;98663.92;106584;1294;124878;-61
2022/11/18 08:27:28;;;;;;;;;;;;;;;-1.73;78.03;98668.52;106744;1302;22462;-61
2022/11/18 08:29:55;;;;;;;;;;;;;;;-1.72;77.94;98668.70;106638;1305;22355;-61
2022/11/18 08:32:22;;;;;;;;;;;;;;;-1.71;77.95;98670.35;106663;1297;123997;-61
2022/11/18 08:34:49;;;;;;;;;;;;;;;-1.70;78.07;98671.64;106765;1303;22414;-61
2022/11/18 08:37:16;;;;;;;;;;;;;;;-1.69;77.71;98673.12;106637;1305;124215;-61
2022/11/18 08:39:42;;;;;;;;;;;;;;;-1.68;77.87;98673.29;106766;1302;22423;-61
2022/11/18 08:42:09;;;;;;;;;;;;;;;-1.67;77.74;98680.94;106673;1294;125571;-61
2022/11/18 08:44:36;;;;;;;;;;;;;;;-1.65;77.82;98682.67;106758;1292;22350;-61
2022/11/18 08:47:02;;;;;;;;;;;;;;;-1.62;77.89;98683.97;106737;1305;22539;-61
2022/11/18 08:49:29;;;;;;;;;;;;;;;-1.59;77.73;98681.74;106651;1304;124976;-61
2022/11/18 08:51:58;;;;;;;;;;;;;;;-1.57;77.55;98682.52;106731;1302;22357;-61
2022/11/18 08:54:24;;;;;;;;;;;;;;;-1.59;77.45;98680.77;106637;1305;125262;-61
2022/11/18 08:56:51;;;;;;;;;;;;;;;-1.60;77.48;98680.61;106740;1278;22430;-61
2022/11/18 08:59:18;;;;;;;;;;;;;;;-1.62;77.03;98680.19;106704;1297;22922;-60
2022/11/18 09:01:45;;;;;;;;;;;;;;;-1.63;77.22;98676.60;106581;1305;123895;-61
2022/11/18 09:04:12;;;;;;;;;;;;;;;-1.66;76.88;98674.53;106703;1306;22483;-61
2022/11/18 09:06:39;;;;;;;;;;;;;;;-1.68;76.75;98676.04;103984;1303;124342;-61
2022/11/18 09:09:06;;;;;;;;;;;;;;;-1.70;76.80;98676.78;102265;1291;22986;-62
2022/11/18 09:11:33;;;;;;;;;;;;;;;-1.67;77.27;98679.59;106450;1309;22434;-62
2022/11/18 09:14:00;;;;;;;;;;;;;;;-1.66;77.73;98678.40;106580;1306;124264;-61
2022/11/18 09:16:46;;;;;;;;;;;;;;;-1.64;77.55;98682.27;106789;1292;22426;-62
2022/11/18 09:19:13;;;;;;;;;;;;;;;-1.63;76.98;98686.55;106655;1294;124976;-62
2022/11/18 09:22:00;;;;;;;;;;;;;;;-1.63;77.10;98689.91;106632;1288;23014;-61
2022/11/18 09:24:27;;;;;;;;;;;;;;;-1.63;76.88;98687.45;106614;1285;123850;-62
2022/11/18 09:26:53;;;;;;;;;;;;;;;-1.64;76.77;98690.44;106754;1305;23131;-62
2022/11/18 09:29:24;;;;;;;;;;;;;;;-1.65;77.03;98695.41;106704;1305;22353;-62
2022/11/18 09:31:51;;;;;;;;;;;;;;;-1.67;76.74;98699.30;106588;1294;124916;-62
2022/11/18 09:34:18;;;;;;;;;;;;;;;-1.64;76.66;98697.80;106718;1308;22378;-60
2022/11/18 09:36:45;;;;;;;;;;;;;;;-1.62;77.09;98697.73;103521;1295;124525;-61
2022/11/18 09:39:12;;;;;;;;;;;;;;;-1.59;76.79;98698.33;102431;1291;25147;-61
2022/11/18 09:41:43;;;;;;;;;;;;;;;-1.58;77.08;98701.52;102316;1286;22463;-61
2022/11/18 09:44:20;;;;;;;;;;;;;;;-1.60;77.20;98690.77;102281;1291;123847;-61
2022/11/18 09:46:46;;;;;;;;;;;;;;;-1.52;77.40;98701.48;102228;1291;24181;-61
2022/11/18 09:49:27;;;;;;;;;;;;;;;-1.49;77.69;98705.58;102250;1300;124574;-60
2022/11/18 09:51:54;;;;;;;;;;;;;;;-1.50;77.41;98702.08;102380;1299;25237;-61
2022/11/18 09:54:21;;;;;;;;;;;;;;;-1.51;77.42;98701.58;102249;1300;124770;-61
2022/11/18 09:56:49;;;;;;;;;;;;;;;-1.49;77.38;98697.15;102315;1299;22588;-61
2022/11/18 09:59:16;;;;;;;;;;;;;;;-1.51;77.27;98695.75;102364;1298;22797;-61
2022/11/18 10:01:43;;;;;;;;;;;;;;;-1.53;77.28;98692.73;102164;1299;124715;-61
2022/11/18 10:04:14;;;;;;;;;;;;;;;-1.58;77.29;98687.00;102308;1310;22586;-61
2022/11/18 10:06:41;;;;;;;;;;;;;;;-1.63;77.19;98686.18;106333;1310;124376;-61
2022/11/18 10:09:18;;;;;;;;;;;;;;;-1.66;77.77;98684.23;106766;1294;22390;-61
2022/11/18 10:12:03;;;;;;;;;;;;;;;-1.63;78.34;98678.41;106717;1306;23296;-61
2022/11/18 10:14:50;;;;;;;;;;;;;;;-1.60;78.14;98679.41;106623;1297;22407;-62
2022/11/18 10:17:32;;;;;;;;;;;;;;;-1.57;78.33;98683.10;106739;1299;22409;-62
2022/11/18 10:20:11;;;;;;;;;;;;;;;-1.54;78.42;98688.00;106696;1304;124708;-61
2022/11/18 10:22:41;;;;;;;;;;;;;;;-1.53;78.16;98680.58;106713;1293;22451;-62
2022/11/18 10:25:12;;;;;;;;;;;;;;;-1.52;78.00;98680.86;106550;1286;124410;-62
2022/11/18 10:27:39;;;;;;;;;;;;;;;-1.54;77.74;98682.48;106662;1303;22418;-62
2022/11/18 10:30:19;;;;;;;;;;;;;;;-1.55;77.91;98677.69;106567;1305;124753;-61
2022/11/18 10:32:51;;;;;;;;;;;;;;;-1.55;77.83;98675.50;106701;1302;22350;-61
2022/11/18 10:35:22;;;;;;;;;;;;;;;-1.54;77.77;98676.42;106705;1289;22368;-61
2022/11/18 10:37:53;;;;;;;;;;;;;;;-1.51;77.93;98678.36;106434;1297;124749;-62
2022/11/18 10:40:33;;;;;;;;;;;;;;;-1.49;77.69;98686.88;106639;1303;22330;-62
2022/11/18 10:43:00;;;;;;;;;;;;;;;-1.49;77.25;98688.20;106593;1293;124391;-62
2022/11/18 10:45:30;;;;;;;;;;;;;;;-1.50;77.15;98687.69;106675;1286;22359;-62
2022/11/18 10:48:12;;;;;;;;;;;;;;;-1.50;76.78;98684.40;106705;1303;22404;-62
2022/11/18 10:50:40;;;;;;;;;;;;;;;-1.52;76.01;98683.61;106717;1302;22416;-62
2022/11/18 10:53:25;;;;;;;;;;;;;;;-1.54;76.26;98680.56;106683;1294;22424;-62
2022/11/18 10:55:59;;;;;;;;;;;;;;;-1.56;76.11;98677.39;106638;1292;123849;-62
2022/11/18 10:58:26;;;;;;;;;;;;;;;-1.56;76.46;98673.98;106768;1302;23582;-61
2022/11/18 11:00:52;;;;;;;;;;;;;;;-1.54;76.24;98674.28;106603;1302;124864;-62
2022/11/18 11:03:19;;;;;;;;;;;;;;;-1.53;76.58;98666.27;106583;1290;22366;-62
2022/11/18 11:05:46;;;;;;;;;;;;;;;-1.53;76.75;98675.52;106779;1295;22428;-62
2022/11/18 11:08:19;;;;;;;;;;;;;;;-1.52;76.54;98679.55;106605;1288;123567;-61
2022/11/18 11:11:03;;;;;;;;;;;;;;;-1.53;76.80;98685.70;106656;1281;22807;-61
2022/11/18 11:13:30;;;;;;;;;;;;;;;-1.52;76.90;98686.54;106633;1301;125618;-61
2022/11/18 11:15:57;;;;;;;;;;;;;;;-1.52;76.66;98680.79;105300;1302;22499;-62
2022/11/18 11:18:41;;;;;;;;;;;;;;;-1.49;76.95;98684.48;102220;1294;125005;-60
2022/11/18 11:21:14;;;;;;;;;;;;;;;-1.46;76.80;98682.24;102284;1295;24816;-62
2022/11/18 11:23:41;;;;;;;;;;;;;;;-1.44;76.78;98686.42;106386;1295;23729;-61
2022/11/18 11:26:21;;;;;;;;;;;;;;;-1.42;76.79;98688.11;106620;1302;124710;-62
2022/11/18 11:29:11;;;;;;;;;;;;;;;-1.38;76.68;98697.30;106729;1302;22466;-61
2022/11/18 11:31:37;;;;;;;;;;;;;;;-1.37;76.79;98697.95;105442;1293;125942;-62
2022/11/18 11:34:10;;;;;;;;;;;;;;;-1.34;76.91;98690.08;106651;1292;22330;-64
2022/11/18 11:36:49;;;;;;;;;;;;;;;-1.32;77.02;98694.98;106681;1302;125478;-62
2022/11/18 11:39:25;;;;;;;;;;;;;;;-1.37;76.77;98690.95;106723;1302;22356;-60
2022/11/18 11:41:55;;;;;;;;;;;;;;;-1.25;76.98;98706.41;106750;1294;22400;-61
2022/11/18 11:44:31;;;;;;;;;;;;;;;-1.25;76.59;98704.69;106625;1303;124780;-61
2022/11/18 11:50:04;;;;;;;;;;;;;;;-1.14;76.46;98740.89;106481;1302;125578;-61
2022/11/18 11:52:32;;;;;;;;;;;;;;;-1.11;76.74;98739.49;106666;1302;23270;-60
2022/11/18 11:55:03;;;;;;;;;;;;;;;-1.14;76.63;98726.26;106524;1295;124381;-60
2022/11/18 11:57:59;;;;;;;;;;;;;;;-1.08;76.82;98733.18;106701;1302;23164;-61
2022/11/18 12:00:27;;;;;;;;;;;;;;;-1.05;77.10;98733.35;106154;1301;124867;-61
2022/11/18 12:03:16;;;;;;;;;;;;;;;-1.01;76.94;98738.79;106165;1311;22469;-60
2022/11/18 12:05:43;;;;;;;;;;;;;;;-0.99;77.04;98739.55;106095;1310;22492;-60
2022/11/18 12:08:20;;;;;;;;;;;;;;;-1.00;76.61;98744.20;105990;1310;125120;-60
2022/11/18 12:10:51;;;;;;;;;;;;;;;-1.00;76.90;98756.55;106023;1296;22408;-60
2022/11/18 12:13:37;;;;;;;;;;;;;;;-1.01;76.76;98767.13;106100;1303;124239;-61
2022/11/18 12:16:07;;;;;;;;;;;;;;;-1.02;76.70;98771.29;106182;1302;22463;-61
2022/11/18 12:19:06;;;;;;;;;;;;;;;-1.04;77.00;98765.68;106117;1304;124685;-61
2022/11/18 12:21:44;;;;;;;;;;;;;;;-1.08;76.88;98761.71;105446;1317;22441;-60
2022/11/18 12:24:24;;;;;;;;;;;;;;;-1.14;76.61;98754.42;105330;1301;125358;-61
2022/11/18 12:26:51;;;;;;;;;;;;;;;-1.21;76.44;98749.88;105426;1317;22384;-61
2022/11/18 12:29:18;;;;;;;;;;;;;;;-1.25;76.95;98738.35;105399;1316;22423;-61
2022/11/18 12:31:45;;;;;;;;;;;;;;;-1.29;77.14;98735.95;105306;1317;123540;-61
2022/11/18 12:34:17;;;;;;;;;;;;;;;-1.31;77.43;98735.02;105398;1317;23233;-61
2022/11/18 12:36:44;;;;;;;;;;;;;;;-1.32;77.65;98727.09;105525;1311;125197;-61
2022/11/18 12:39:28;;;;;;;;;;;;;;;-1.32;77.60;98734.61;106041;1305;23169;-61
2022/11/18 12:44:41;;;;;;;;;;;;;;;-1.30;78.09;98757.75;106085;1305;22426;-61
2022/11/18 12:47:08;;;;;;;;;;;;;;;-1.29;77.82;98762.06;106062;1310;22502;-62
2022/11/18 12:49:35;;;;;;;;;;;;;;;-1.30;77.70;98771.98;105956;1313;125221;-61